Time;durP1;ratioP1;P1;durP2;ratioP2;P2;SDS_P1;SDS_P2;PMS_P1;PMS_P2;Temp;Humidity;BMP_temperature;BMP_pressure;BME280_temperature;BME280_humidity;BME280_pressure;Samples;Min_cycle;Max_cycle;Signal;HPM_P1;HPM_P2
2023/03/05 00:08:45;;;;;;;10.5;4.5;;;;;;;1.8;79.3;98410;;;;
2023/03/05 00:18:45;;;;;;;10.5;4.5;;;;;;;1.7;79.5;98410;;;;
2023/03/05 00:29:45;;;;;;;9.7;4.8;;;;;;;1.8;79.6;98400;;;;
2023/03/05 00:39:45;;;;;;;9.7;4.8;;;;;;;1.7;79.7;98390;;;;
2023/03/05 00:49:45;;;;;;;9.7;4.8;;;;;;;1.8;80;98380;;;;
2023/03/05 01:00:45;;;;;;;11.2;5.9;;;;;;;1.7;80.3;98370;;;;
2023/03/05 01:11:45;;;;;;;11.2;5.9;;;;;;;1.7;80.7;98370;;;;
2023/03/05 01:21:45;;;;;;;11.2;5.9;;;;;;;1.6;78.6;98370;;;;
2023/03/05 01:31:45;;;;;;;14.4;6.4;;;;;;;1.6;78.4;98370;;;;
2023/03/05 01:42:45;;;;;;;14.4;6.4;;;;;;;1.7;79.1;98360;;;;
2023/03/05 01:53:45;;;;;;;14.4;6.4;;;;;;;1.7;80;98360;;;;
2023/03/05 02:04:45;;;;;;;10.7;6.4;;;;;;;1.8;80.6;98360;;;;
2023/03/05 02:15:46;;;;;;;10.7;6.4;;;;;;;1.7;81.1;98370;;;;
2023/03/05 02:25:45;;;;;;;10.7;6.4;;;;;;;1.5;78.6;98360;;;;
2023/03/05 02:35:45;;;;;;;12.6;6.6;;;;;;;1.4;76.9;98360;;;;
2023/03/05 02:45:45;;;;;;;12.6;6.6;;;;;;;1.1;74.4;98350;;;;
2023/03/05 02:55:45;;;;;;;12.6;6.6;;;;;;;0.9;73.7;98350;;;;
2023/03/05 03:05:45;;;;;;;8.1;3.5;;;;;;;0.8;73.6;98340;;;;
2023/03/05 03:16:45;;;;;;;8.1;3.5;;;;;;;0.8;74.4;98330;;;;
2023/03/05 03:26:45;;;;;;;8.1;3.5;;;;;;;0.8;75.3;98340;;;;
2023/03/05 03:37:45;;;;;;;6.3;3.1;;;;;;;0.8;76.1;98310;;;;
2023/03/05 03:47:45;;;;;;;6.3;3.1;;;;;;;0.8;76.3;98320;;;;
2023/03/05 03:58:45;;;;;;;7.2;3;;;;;;;0.8;76.7;98310;;;;
2023/03/05 04:09:45;;;;;;;7.2;3;;;;;;;0.9;77;98300;;;;
2023/03/05 04:19:45;;;;;;;7.2;3;;;;;;;0.8;77.5;98280;;;;
2023/03/05 04:30:45;;;;;;;6.3;3.5;;;;;;;0.7;78;98280;;;;
2023/03/05 04:41:45;;;;;;;6.3;3.5;;;;;;;0.7;78.2;98280;;;;
2023/03/05 04:51:45;;;;;;;6.3;3.5;;;;;;;0.7;78.2;98280;;;;
2023/03/05 05:02:45;;;;;;;9.2;4.4;;;;;;;0.5;78.4;98270;;;;
2023/03/05 05:12:45;;;;;;;9.2;4.4;;;;;;;0.5;79;98260;;;;
2023/03/05 05:23:45;;;;;;;9.2;4.4;;;;;;;0.5;79.4;98260;;;;
2023/03/05 05:33:45;;;;;;;8.7;4.8;;;;;;;0.4;80.3;98250;;;;
2023/03/05 05:43:45;;;;;;;8.7;4.8;;;;;;;0.3;80.6;98240;;;;
2023/03/05 05:53:45;;;;;;;8.7;4.8;;;;;;;0.3;81.5;98240;;;;
2023/03/05 06:04:45;;;;;;;9.8;5.5;;;;;;;0.3;82;98270;;;;
2023/03/05 06:14:45;;;;;;;9.8;5.5;;;;;;;0.6;82.1;98270;;;;
2023/03/05 06:25:45;;;;;;;9.8;5.5;;;;;;;0.3;81.6;98280;;;;
2023/03/05 06:36:45;;;;;;;14.7;6.5;;;;;;;0.4;81.3;98280;;;;
2023/03/05 06:46:45;;;;;;;14.7;6.5;;;;;;;0.4;81.7;98270;;;;
2023/03/05 06:57:45;;;;;;;14.8;7.2;;;;;;;0.5;82.1;98260;;;;
2023/03/05 07:08:45;;;;;;;14.8;7.2;;;;;;;0.6;82.5;98270;;;;
2023/03/05 07:19:45;;;;;;;14.8;7.2;;;;;;;0.7;82.7;98270;;;;
2023/03/05 07:29:45;;;;;;;14.1;8.5;;;;;;;0.8;82.7;98260;;;;
2023/03/05 07:39:45;;;;;;;14.1;8.5;;;;;;;0.9;82.8;98250;;;;
2023/03/05 07:50:45;;;;;;;14.1;8.5;;;;;;;1.1;82.7;98240;;;;
2023/03/05 08:00:45;;;;;;;13.7;7.9;;;;;;;1.3;82.3;98230;;;;
2023/03/05 08:11:45;;;;;;;13.7;7.9;;;;;;;1.5;81.6;98220;;;;
2023/03/05 08:22:45;;;;;;;13.7;7.9;;;;;;;1.7;80.9;98200;;;;
2023/03/05 08:32:45;;;;;;;13.8;7.8;;;;;;;2.1;79.5;98190;;;;
2023/03/05 08:42:45;;;;;;;13.8;7.8;;;;;;;2.5;78.6;98190;;;;
2023/03/05 08:52:45;;;;;;;13.8;7.8;;;;;;;2.8;76.9;98180;;;;
2023/03/05 09:03:45;;;;;;;13.2;7.7;;;;;;;3.1;76.5;98180;;;;
2023/03/05 09:13:45;;;;;;;13.2;7.7;;;;;;;3.5;75.5;98170;;;;
2023/03/05 09:23:46;;;;;;;13.2;7.7;;;;;;;3.5;74.4;98170;;;;
2023/03/05 09:34:45;;;;;;;19.7;11.3;;;;;;;3.8;74.4;98150;;;;
2023/03/05 09:44:45;;;;;;;19.7;11.3;;;;;;;3.8;74.6;98140;;;;
2023/03/05 09:55:46;;;;;;;19.7;11.3;;;;;;;4.1;73.7;98140;;;;
2023/03/05 10:06:45;;;;;;;17.1;10.9;;;;;;;4.2;73.7;98130;;;;
2023/03/05 10:16:45;;;;;;;17.1;10.9;;;;;;;4.4;72.8;98110;;;;
2023/03/05 10:26:45;;;;;;;17.5;12.8;;;;;;;4.2;73.2;98110;;;;
2023/03/05 10:37:46;;;;;;;17.5;12.8;;;;;;;4.3;72;98090;;;;
2023/03/05 10:47:45;;;;;;;17.5;12.8;;;;;;;4.1;71.9;98080;;;;
2023/03/05 10:58:46;;;;;;;20;14;;;;;;;3.9;72.4;98080;;;;
2023/03/05 11:09:45;;;;;;;20;14;;;;;;;3.5;73.2;98070;;;;
2023/03/05 11:20:45;;;;;;;20;14;;;;;;;3.1;75.3;98060;;;;
2023/03/05 11:31:45;;;;;;;15.7;10.4;;;;;;;2.6;77.5;98070;;;;
2023/03/05 11:41:45;;;;;;;15.7;10.4;;;;;;;2.1;80;98060;;;;
2023/03/05 11:52:46;;;;;;;15.7;10.4;;;;;;;1.9;83;98070;;;;
2023/03/05 12:03:45;;;;;;;11.9;7.3;;;;;;;1.8;84.1;98050;;;;
2023/03/05 12:13:46;;;;;;;11.9;7.3;;;;;;;1.4;80.9;98040;;;;
2023/03/05 12:24:46;;;;;;;11.9;7.3;;;;;;;1.3;79.5;98030;;;;
2023/03/05 12:34:46;;;;;;;14;6;;;;;;;1.4;80.5;98030;;;;
2023/03/05 12:45:46;;;;;;;14;6;;;;;;;1.8;81;98020;;;;
2023/03/05 12:56:46;;;;;;;9.6;5.6;;;;;;;2.1;80.6;98010;;;;
2023/03/05 13:07:45;;;;;;;9.6;5.6;;;;;;;2.1;79.3;98010;;;;
2023/03/05 13:18:45;;;;;;;9.6;5.6;;;;;;;2;80;98000;;;;
2023/03/05 13:28:46;;;;;;;12.1;5.4;;;;;;;2.1;80.7;98010;;;;
2023/03/05 13:39:45;;;;;;;12.1;5.4;;;;;;;2.2;79.8;98000;;;;
2023/03/05 13:50:47;;;;;;;12.1;5.4;;;;;;;2.4;78.6;97990;;;;
2023/03/05 14:00:45;;;;;;;12.3;6.2;;;;;;;2.7;78;97980;;;;
2023/03/05 14:10:45;;;;;;;12.3;6.2;;;;;;;3.3;77.3;97970;;;;
2023/03/05 14:20:45;;;;;;;12.3;6.2;;;;;;;3.4;75.7;97960;;;;
2023/03/05 14:30:46;;;;;;;15.1;8.6;;;;;;;3;73.5;97950;;;;
2023/03/05 14:41:46;;;;;;;15.1;8.6;;;;;;;2.7;72.5;97970;;;;
2023/03/05 14:52:46;;;;;;;15.1;8.6;;;;;;;2.7;71.5;97950;;;;
2023/03/05 15:02:46;;;;;;;13.7;7.7;;;;;;;2.6;69.9;97950;;;;
2023/03/05 15:12:46;;;;;;;13.7;7.7;;;;;;;2.6;68.7;97940;;;;
2023/03/05 15:22:46;;;;;;;13.7;7.7;;;;;;;2.4;68.2;97930;;;;
2023/03/05 15:33:46;;;;;;;6.7;3.8;;;;;;;2.4;68.9;97930;;;;
2023/03/05 15:44:46;;;;;;;6.7;3.8;;;;;;;2.4;70.9;97920;;;;
2023/03/05 15:54:46;;;;;;;6.7;3.8;;;;;;;2.3;73;97930;;;;
2023/03/05 16:04:46;;;;;;;15.2;9.4;;;;;;;2.2;73.4;97920;;;;
2023/03/05 16:15:51;;;;;;;15.2;9.4;;;;;;;2.1;71.9;97910;;;;
2023/03/05 16:25:46;;;;;;;15.2;9.4;;;;;;;2.1;71;97920;;;;
2023/03/05 16:35:46;;;;;;;16.3;8.7;;;;;;;2.1;71.3;97920;;;;
2023/03/05 16:45:46;;;;;;;16.3;8.7;;;;;;;2.1;71.4;97930;;;;
2023/03/05 16:56:46;;;;;;;16.9;8;;;;;;;2;70.2;97930;;;;
2023/03/05 17:06:46;;;;;;;16.9;8;;;;;;;2.1;70.3;97930;;;;
2023/03/05 17:16:46;;;;;;;16.9;8;;;;;;;1.9;71;97930;;;;
2023/03/05 17:26:46;;;;;;;13.7;7.4;;;;;;;2;71.4;97940;;;;
2023/03/05 17:36:46;;;;;;;13.7;7.4;;;;;;;1.8;71.8;97950;;;;
2023/03/05 17:47:46;;;;;;;13.7;7.4;;;;;;;1.7;74.3;97960;;;;
2023/03/05 17:57:46;;;;;;;14.7;7.4;;;;;;;1.6;74.9;97950;;;;
2023/03/05 18:08:46;;;;;;;14.7;7.4;;;;;;;1.6;75.5;97960;;;;
2023/03/05 18:18:46;;;;;;;14.7;7.4;;;;;;;1.5;76.5;97960;;;;
2023/03/05 18:28:46;;;;;;;14.6;7.1;;;;;;;1.3;78.6;97970;;;;
2023/03/05 18:38:46;;;;;;;14.6;7.1;;;;;;;1.2;80.7;97970;;;;
2023/03/05 18:48:46;;;;;;;14.6;7.1;;;;;;;1.2;82.2;97970;;;;
2023/03/05 18:59:46;;;;;;;14.2;7.7;;;;;;;1.2;83.7;97960;;;;
2023/03/05 19:09:52;;;;;;;14.2;7.7;;;;;;;1.1;85;97960;;;;
2023/03/05 19:20:46;;;;;;;14.2;7.7;;;;;;;1.1;85.5;97960;;;;
2023/03/05 19:31:46;;;;;;;15.1;8.7;;;;;;;0.9;85.9;97960;;;;
2023/03/05 19:41:46;;;;;;;15.1;8.7;;;;;;;0.9;86.2;97960;;;;
2023/03/05 19:52:46;;;;;;;15.1;8.7;;;;;;;0.9;86.7;97960;;;;
2023/03/05 20:02:47;;;;;;;16.5;9.1;;;;;;;0.9;86.9;97960;;;;
2023/03/05 20:13:46;;;;;;;16.5;9.1;;;;;;;0.9;86.5;97960;;;;
2023/03/05 20:23:46;;;;;;;16.5;9.1;;;;;;;0.9;86.4;97950;;;;
2023/03/05 20:34:46;;;;;;;14.7;8.8;;;;;;;0.6;86.7;97940;;;;
2023/03/05 20:44:46;;;;;;;14.7;8.8;;;;;;;0.6;87;97930;;;;
2023/03/05 20:55:46;;;;;;;14.1;7.3;;;;;;;0.6;87.3;97930;;;;
2023/03/05 21:05:46;;;;;;;14.1;7.3;;;;;;;0.6;87.3;97930;;;;
2023/03/05 21:15:46;;;;;;;14.1;7.3;;;;;;;0.4;86.8;97920;;;;
2023/03/05 21:25:46;;;;;;;12;6.1;;;;;;;0.3;86.7;97920;;;;
2023/03/05 21:35:46;;;;;;;12;6.1;;;;;;;0.2;86.7;97900;;;;
2023/03/05 21:46:46;;;;;;;12;6.1;;;;;;;0.5;86.6;97900;;;;
2023/03/05 21:57:46;;;;;;;12.3;6.1;;;;;;;0.5;86.1;97890;;;;
2023/03/05 22:08:46;;;;;;;12.3;6.1;;;;;;;0.6;86;97880;;;;
2023/03/05 22:18:46;;;;;;;12.3;6.1;;;;;;;0.6;85.5;97880;;;;
2023/03/05 22:29:46;;;;;;;19.3;9.4;;;;;;;0.5;85.5;97880;;;;
2023/03/05 22:39:46;;;;;;;19.3;9.4;;;;;;;0.5;85.7;97870;;;;
2023/03/05 22:50:46;;;;;;;19.3;9.4;;;;;;;0.5;85.7;97870;;;;
2023/03/05 23:01:46;;;;;;;11.3;6.8;;;;;;;0.6;85.8;97850;;;;
2023/03/05 23:11:46;;;;;;;11.3;6.8;;;;;;;0.6;85.4;97850;;;;
2023/03/05 23:22:46;;;;;;;11.3;6.8;;;;;;;0.5;85.3;97840;;;;
2023/03/05 23:33:46;;;;;;;13.8;8;;;;;;;0.5;85.8;97840;;;;
2023/03/05 23:44:46;;;;;;;13.8;8;;;;;;;0.6;85.7;97840;;;;
2023/03/05 23:54:46;;;;;;;12.6;7.6;;;;;;;0.6;85.5;97840;;;;
